Airfield :
LOGIN :

Register | Disclaimer

   EN    FR    IT 

 










Legend :    VFR   Marginal VFR   IFR   Intensive IFR   Very Intensive IFR
Visi :
Ceiling :
>= 8 km
>= 3000ft
5 to 8 km
1000 to 3000 ft
1500m to 5 km
500 to 1000 ft
800 to 1500m
200 to 500 ft
< 800m
< 200 ft
Symbols :   Thunderstorms  Fog  Heavy snow  Heavy precipitations  Wind > 20 kt
SIGMETs :     Misc.  Thunderstorms  Icing  Turbulence  Mountain Waves  Volcanic Ashes







- Airport Elevation : 245 ft
- IATA code : BIQ
- Download approach charts


LFBZ - Biarritz

CURRENT METAR :
  • 221400Z AUTO 33006KT 280V010 CAVOK 26/17 Q1023 NOSIG

EXPIRED METARs :
  • 221330Z AUTO 33006KT 290V360 CAVOK 26/18 Q1023 NOSIG
  • 221300Z AUTO 33007KT 290V360 CAVOK 26/18 Q1023 NOSIG
  • 221230Z AUTO VRB01KT CAVOK 26/18 Q1023 BECMG 34012KT
  • 221200Z AUTO VRB01KT CAVOK 27/17 Q1023 BECMG 34012KT
  • 221130Z AUTO 15003KT 100V200 CAVOK 26/18 Q1023 BECMG 34012KT

TAF TAF LFBZ
Valid from the 22 at 12:00 until the 23 at 12:00 UTC


221100Z 2212/2312 12005KT CAVOK
BECMG 2212/2214 34012KT
BECMG 2217/2220 24006KT
PROB30
TEMPO 2309/2312 BKN006
No reported NOTAMs for that airfield.



MET'MAP, your aeronautical weather chart ! - Copyright ORBIFLY December 2007 - Disclaimer

ORBIFLY MET'MAP TEAM :

Programming & Development : Alexandra Zaïnal
Concept & Development : Baudouin d'Aumeries
Co-Development & Prog : Marc-Olivier Méhu
Technical & hardware support : Manuel Goepfert

Contact : metmap@orbifly.com




SOURCES & CREDITS :

   NOAA